sensor_id;sensor_type;location;lat;lon;timestamp;pressure;altitude;pressure_sealevel;temperature;humidity
4858;BME280;58975;51.978;8.472;2023-07-29T00:00:21;99577.34;;;18.03;100.00
4858;BME280;58975;51.978;8.472;2023-07-29T00:05:17;99574.00;;;18.01;100.00
4858;BME280;58975;51.978;8.472;2023-07-29T00:10:14;99571.69;;;17.98;100.00
4858;BME280;58975;51.978;8.472;2023-07-29T00:15:11;99568.16;;;17.97;100.00
4858;BME280;58975;51.978;8.472;2023-07-29T00:20:08;99564.19;;;17.93;100.00
4858;BME280;58975;51.978;8.472;2023-07-29T00:25:05;99569.41;;;17.94;100.00
4858;BME280;58975;51.978;8.472;2023-07-29T00:30:02;99573.94;;;17.94;100.00
4858;BME280;58975;51.978;8.472;2023-07-29T00:34:58;99564.00;;;17.94;100.00
4858;BME280;58975;51.978;8.472;2023-07-29T00:39:57;99562.16;;;17.95;100.00
4858;BME280;58975;51.978;8.472;2023-07-29T00:44:54;99550.94;;;17.91;100.00
4858;BME280;58975;51.978;8.472;2023-07-29T00:49:51;99568.63;;;18.01;100.00
4858;BME280;58975;51.978;8.472;2023-07-29T00:54:47;99547.63;;;17.96;100.00
4858;BME280;58975;51.978;8.472;2023-07-29T00:59:44;99545.31;;;17.93;100.00
4858;BME280;58975;51.978;8.472;2023-07-29T01:04:40;99548.69;;;17.95;100.00
4858;BME280;58975;51.978;8.472;2023-07-29T01:09:59;99535.97;;;17.89;100.00
4858;BME280;58975;51.978;8.472;2023-07-29T01:14:59;99531.97;;;17.85;100.00
4858;BME280;58975;51.978;8.472;2023-07-29T01:20:05;99529.94;;;17.87;100.00
4858;BME280;58975;51.978;8.472;2023-07-29T01:25:03;99540.59;;;17.95;100.00
4858;BME280;58975;51.978;8.472;2023-07-29T01:30:01;99535.38;;;17.93;100.00
4858;BME280;58975;51.978;8.472;2023-07-29T01:35:28;99532.63;;;17.87;100.00
4858;BME280;58975;51.978;8.472;2023-07-29T01:40:28;99521.22;;;17.85;100.00
4858;BME280;58975;51.978;8.472;2023-07-29T01:45:25;99514.16;;;17.84;100.00
4858;BME280;58975;51.978;8.472;2023-07-29T01:50:22;99507.75;;;17.85;100.00
4858;BME280;58975;51.978;8.472;2023-07-29T01:55:18;99510.81;;;17.82;100.00
4858;BME280;58975;51.978;8.472;2023-07-29T02:00:15;99510.38;;;17.78;100.00
4858;BME280;58975;51.978;8.472;2023-07-29T02:05:12;99508.91;;;17.76;100.00
4858;BME280;58975;51.978;8.472;2023-07-29T02:10:08;99489.41;;;17.74;100.00
4858;BME280;58975;51.978;8.472;2023-07-29T02:15:05;99510.88;;;17.67;100.00
4858;BME280;58975;51.978;8.472;2023-07-29T02:20:03;99516.81;;;17.63;100.00
4858;BME280;58975;51.978;8.472;2023-07-29T02:25:00;99512.53;;;17.68;100.00
4858;BME280;58975;51.978;8.472;2023-07-29T02:29:57;99512.34;;;17.70;100.00
4858;BME280;58975;51.978;8.472;2023-07-29T02:34:53;99511.72;;;17.68;100.00
4858;BME280;58975;51.978;8.472;2023-07-29T02:39:50;99504.00;;;17.65;100.00
4858;BME280;58975;51.978;8.472;2023-07-29T02:44:46;99507.72;;;17.64;100.00
4858;BME280;58975;51.978;8.472;2023-07-29T02:49:42;99505.03;;;17.64;100.00
4858;BME280;58975;51.978;8.472;2023-07-29T02:54:39;99507.28;;;17.60;100.00
4858;BME280;58975;51.978;8.472;2023-07-29T02:59:36;99514.75;;;17.65;100.00
4858;BME280;58975;51.978;8.472;2023-07-29T03:04:32;99503.44;;;17.69;100.00
4858;BME280;58975;51.978;8.472;2023-07-29T03:09:29;99501.84;;;17.75;100.00
4858;BME280;58975;51.978;8.472;2023-07-29T03:14:26;99489.78;;;17.71;100.00
4858;BME280;58975;51.978;8.472;2023-07-29T03:19:22;99505.72;;;17.72;100.00
4858;BME280;58975;51.978;8.472;2023-07-29T03:24:19;99491.63;;;17.70;100.00
4858;BME280;58975;51.978;8.472;2023-07-29T03:29:15;99494.97;;;17.72;100.00
4858;BME280;58975;51.978;8.472;2023-07-29T03:34:12;99500.94;;;17.68;100.00
4858;BME280;58975;51.978;8.472;2023-07-29T03:39:09;99501.19;;;17.73;100.00
4858;BME280;58975;51.978;8.472;2023-07-29T03:44:05;99501.91;;;17.81;100.00
4858;BME280;58975;51.978;8.472;2023-07-29T03:49:01;99489.78;;;17.92;100.00
4858;BME280;58975;51.978;8.472;2023-07-29T03:53:59;99483.72;;;17.83;100.00
4858;BME280;58975;51.978;8.472;2023-07-29T03:59:05;99489.72;;;17.85;100.00
4858;BME280;58975;51.978;8.472;2023-07-29T04:04:02;99486.59;;;17.82;100.00
4858;BME280;58975;51.978;8.472;2023-07-29T04:08:58;99480.09;;;17.76;100.00
4858;BME280;58975;51.978;8.472;2023-07-29T04:13:55;99477.41;;;17.76;100.00
4858;BME280;58975;51.978;8.472;2023-07-29T04:18:51;99487.72;;;17.73;100.00
4858;BME280;58975;51.978;8.472;2023-07-29T04:23:48;99480.94;;;17.77;100.00
4858;BME280;58975;51.978;8.472;2023-07-29T04:28:44;99479.34;;;17.82;100.00
4858;BME280;58975;51.978;8.472;2023-07-29T04:33:41;99490.16;;;17.89;100.00
4858;BME280;58975;51.978;8.472;2023-07-29T04:38:37;99486.06;;;17.93;100.00
4858;BME280;58975;51.978;8.472;2023-07-29T04:43:34;99491.06;;;17.96;100.00
4858;BME280;58975;51.978;8.472;2023-07-29T04:48:30;99484.09;;;18.02;100.00
4858;BME280;58975;51.978;8.472;2023-07-29T04:53:27;99474.19;;;18.09;100.00
4858;BME280;58975;51.978;8.472;2023-07-29T04:58:23;99479.63;;;18.15;100.00
4858;BME280;58975;51.978;8.472;2023-07-29T05:03:20;99457.31;;;18.21;100.00
4858;BME280;58975;51.978;8.472;2023-07-29T05:08:16;99456.91;;;18.24;100.00
4858;BME280;58975;51.978;8.472;2023-07-29T05:13:13;99453.88;;;18.34;100.00
4858;BME280;58975;51.978;8.472;2023-07-29T05:18:09;99440.63;;;18.39;100.00
4858;BME280;58975;51.978;8.472;2023-07-29T05:23:06;99436.34;;;18.44;100.00
4858;BME280;58975;51.978;8.472;2023-07-29T05:28:03;99432.50;;;18.54;100.00
4858;BME280;58975;51.978;8.472;2023-07-29T05:33:00;99431.13;;;18.71;100.00
4858;BME280;58975;51.978;8.472;2023-07-29T05:37:57;99439.91;;;18.86;100.00
4858;BME280;58975;51.978;8.472;2023-07-29T05:42:53;99431.91;;;18.99;100.00
4858;BME280;58975;51.978;8.472;2023-07-29T05:47:50;99419.91;;;19.08;100.00
4858;BME280;58975;51.978;8.472;2023-07-29T05:52:46;99400.97;;;19.02;100.00
4858;BME280;58975;51.978;8.472;2023-07-29T05:57:43;99408.06;;;19.09;100.00
4858;BME280;58975;51.978;8.472;2023-07-29T06:02:40;99414.72;;;19.13;100.00
4858;BME280;58975;51.978;8.472;2023-07-29T06:07:39;99417.41;;;19.13;100.00
4858;BME280;58975;51.978;8.472;2023-07-29T06:12:40;99427.19;;;19.14;100.00
4858;BME280;58975;51.978;8.472;2023-07-29T06:17:36;99430.09;;;19.13;100.00
4858;BME280;58975;51.978;8.472;2023-07-29T06:22:33;99445.06;;;19.15;100.00
4858;BME280;58975;51.978;8.472;2023-07-29T06:27:29;99442.16;;;19.17;100.00
4858;BME280;58975;51.978;8.472;2023-07-29T06:32:25;99430.13;;;19.19;100.00
4858;BME280;58975;51.978;8.472;2023-07-29T06:37:22;99401.91;;;19.28;100.00
4858;BME280;58975;51.978;8.472;2023-07-29T06:42:19;99393.72;;;19.56;100.00
4858;BME280;58975;51.978;8.472;2023-07-29T06:47:15;99403.91;;;19.80;100.00
4858;BME280;58975;51.978;8.472;2023-07-29T06:52:12;99417.41;;;19.80;100.00
4858;BME280;58975;51.978;8.472;2023-07-29T06:57:08;99430.72;;;19.89;100.00
4858;BME280;58975;51.978;8.472;2023-07-29T07:02:06;99445.22;;;19.48;100.00
4858;BME280;58975;51.978;8.472;2023-07-29T07:07:03;99460.38;;;19.08;100.00
4858;BME280;58975;51.978;8.472;2023-07-29T07:11:59;99478.19;;;18.96;100.00
4858;BME280;58975;51.978;8.472;2023-07-29T07:16:56;99478.94;;;18.83;100.00
4858;BME280;58975;51.978;8.472;2023-07-29T07:21:52;99487.44;;;18.87;100.00
4858;BME280;58975;51.978;8.472;2023-07-29T07:26:49;99486.88;;;18.98;100.00
4858;BME280;58975;51.978;8.472;2023-07-29T07:31:53;99473.78;;;18.88;100.00
4858;BME280;58975;51.978;8.472;2023-07-29T07:36:49;99464.28;;;18.99;100.00
4858;BME280;58975;51.978;8.472;2023-07-29T07:41:46;99464.44;;;19.32;100.00
4858;BME280;58975;51.978;8.472;2023-07-29T07:46:42;99463.59;;;19.31;100.00
4858;BME280;58975;51.978;8.472;2023-07-29T07:51:39;99467.59;;;19.42;100.00
4858;BME280;58975;51.978;8.472;2023-07-29T07:56:36;99460.56;;;19.48;100.00
4858;BME280;58975;51.978;8.472;2023-07-29T08:01:37;99448.94;;;19.54;100.00
4858;BME280;58975;51.978;8.472;2023-07-29T08:06:33;99459.34;;;19.57;100.00
4858;BME280;58975;51.978;8.472;2023-07-29T08:11:31;99468.44;;;19.43;100.00
4858;BME280;58975;51.978;8.472;2023-07-29T08:16:27;99459.31;;;19.44;100.00
4858;BME280;58975;51.978;8.472;2023-07-29T08:21:24;99468.50;;;19.56;100.00
4858;BME280;58975;51.978;8.472;2023-07-29T08:26:20;99467.63;;;19.49;100.00
4858;BME280;58975;51.978;8.472;2023-07-29T08:31:17;99474.00;;;19.41;100.00
4858;BME280;58975;51.978;8.472;2023-07-29T08:36:14;99482.19;;;19.61;100.00
4858;BME280;58975;51.978;8.472;2023-07-29T08:41:13;99488.00;;;19.58;100.00
4858;BME280;58975;51.978;8.472;2023-07-29T08:46:10;99479.47;;;19.54;100.00
4858;BME280;58975;51.978;8.472;2023-07-29T08:51:09;99474.16;;;19.87;100.00
4858;BME280;58975;51.978;8.472;2023-07-29T08:56:06;99471.06;;;20.69;100.00
4858;BME280;58975;51.978;8.472;2023-07-29T09:01:03;99473.88;;;21.13;100.00
4858;BME280;58975;51.978;8.472;2023-07-29T09:06:02;99485.63;;;20.81;100.00
4858;BME280;58975;51.978;8.472;2023-07-29T09:10:58;99480.25;;;20.35;100.00
4858;BME280;58975;51.978;8.472;2023-07-29T09:15:57;99484.00;;;20.41;100.00
4858;BME280;58975;51.978;8.472;2023-07-29T09:20:54;99481.91;;;20.43;100.00
4858;BME280;58975;51.978;8.472;2023-07-29T09:25:50;99485.41;;;20.83;100.00
4858;BME280;58975;51.978;8.472;2023-07-29T09:30:56;99488.97;;;20.63;100.00
4858;BME280;58975;51.978;8.472;2023-07-29T09:35:52;99498.13;;;20.56;100.00
4858;BME280;58975;51.978;8.472;2023-07-29T09:40:49;99489.38;;;21.51;100.00
4858;BME280;58975;51.978;8.472;2023-07-29T09:45:46;99499.97;;;21.52;100.00
4858;BME280;58975;51.978;8.472;2023-07-29T09:50:42;99500.09;;;21.26;100.00
4858;BME280;58975;51.978;8.472;2023-07-29T09:55:39;99493.59;;;21.34;100.00
4858;BME280;58975;51.978;8.472;2023-07-29T10:00:35;99501.47;;;21.42;100.00
4858;BME280;58975;51.978;8.472;2023-07-29T10:05:32;99496.09;;;21.80;100.00
4858;BME280;58975;51.978;8.472;2023-07-29T10:10:30;99488.88;;;21.67;100.00
4858;BME280;58975;51.978;8.472;2023-07-29T10:15:28;99493.56;;;21.47;100.00
4858;BME280;58975;51.978;8.472;2023-07-29T10:20:25;99487.94;;;21.42;100.00
4858;BME280;58975;51.978;8.472;2023-07-29T10:25:22;99480.63;;;21.80;100.00
4858;BME280;58975;51.978;8.472;2023-07-29T10:30:19;99489.41;;;21.82;100.00
4858;BME280;58975;51.978;8.472;2023-07-29T10:35:16;99493.63;;;21.27;100.00
4858;BME280;58975;51.978;8.472;2023-07-29T10:40:12;99484.34;;;21.54;100.00
4858;BME280;58975;51.978;8.472;2023-07-29T10:45:19;99479.97;;;22.23;100.00
4858;BME280;58975;51.978;8.472;2023-07-29T10:50:20;99490.63;;;21.86;100.00
4858;BME280;58975;51.978;8.472;2023-07-29T11:00:30;99489.56;;;21.56;100.00
4858;BME280;58975;51.978;8.472;2023-07-29T11:05:41;99488.09;;;21.98;100.00
4858;BME280;58975;51.978;8.472;2023-07-29T11:10:42;99482.53;;;22.17;100.00
4858;BME280;58975;51.978;8.472;2023-07-29T11:15:40;99470.56;;;22.50;100.00
4858;BME280;58975;51.978;8.472;2023-07-29T11:20:37;99471.81;;;22.47;100.00
4858;BME280;58975;51.978;8.472;2023-07-29T11:25:33;99478.91;;;22.48;100.00
4858;BME280;58975;51.978;8.472;2023-07-29T11:30:30;99475.91;;;21.69;100.00
4858;BME280;58975;51.978;8.472;2023-07-29T11:35:27;99466.25;;;22.17;100.00
4858;BME280;58975;51.978;8.472;2023-07-29T11:40:24;99461.44;;;23.05;100.00
4858;BME280;58975;51.978;8.472;2023-07-29T11:45:22;99460.78;;;22.74;100.00
4858;BME280;58975;51.978;8.472;2023-07-29T11:50:28;99456.72;;;22.58;100.00
4858;BME280;58975;51.978;8.472;2023-07-29T11:55:24;99449.06;;;22.73;100.00
4858;BME280;58975;51.978;8.472;2023-07-29T12:00:21;99469.03;;;23.33;100.00
4858;BME280;58975;51.978;8.472;2023-07-29T12:05:18;99471.25;;;23.06;100.00
4858;BME280;58975;51.978;8.472;2023-07-29T12:10:17;99467.03;;;22.25;100.00
4858;BME280;58975;51.978;8.472;2023-07-29T12:15:28;99476.47;;;23.08;100.00
4858;BME280;58975;51.978;8.472;2023-07-29T12:20:26;99466.13;;;23.17;100.00
4858;BME280;58975;51.978;8.472;2023-07-29T12:25:23;99466.94;;;23.53;100.00
4858;BME280;58975;51.978;8.472;2023-07-29T12:30:23;99468.00;;;22.98;100.00
4858;BME280;58975;51.978;8.472;2023-07-29T12:35:21;99472.75;;;23.02;100.00
4858;BME280;58975;51.978;8.472;2023-07-29T12:40:24;99474.56;;;22.72;100.00
4858;BME280;58975;51.978;8.472;2023-07-29T12:45:21;99469.50;;;22.51;100.00
4858;BME280;58975;51.978;8.472;2023-07-29T12:50:23;99469.53;;;22.26;100.00
4858;BME280;58975;51.978;8.472;2023-07-29T12:55:19;99460.72;;;22.31;100.00
4858;BME280;58975;51.978;8.472;2023-07-29T13:00:18;99461.16;;;22.77;100.00
4858;BME280;58975;51.978;8.472;2023-07-29T13:05:15;99451.94;;;23.15;100.00
4858;BME280;58975;51.978;8.472;2023-07-29T13:10:12;99454.97;;;23.06;100.00
4858;BME280;58975;51.978;8.472;2023-07-29T13:15:10;99445.16;;;22.69;100.00
4858;BME280;58975;51.978;8.472;2023-07-29T13:20:07;99460.38;;;23.06;100.00
4858;BME280;58975;51.978;8.472;2023-07-29T13:25:04;99459.03;;;23.52;100.00
4858;BME280;58975;51.978;8.472;2023-07-29T13:30:00;99459.50;;;23.90;100.00
4858;BME280;58975;51.978;8.472;2023-07-29T13:34:57;99459.75;;;24.42;100.00
4858;BME280;58975;51.978;8.472;2023-07-29T13:39:53;99452.03;;;23.44;100.00
4858;BME280;58975;51.978;8.472;2023-07-29T13:44:49;99460.16;;;23.08;100.00
4858;BME280;58975;51.978;8.472;2023-07-29T13:49:46;99457.41;;;23.63;100.00
4858;BME280;58975;51.978;8.472;2023-07-29T13:54:42;99455.59;;;23.56;100.00
4858;BME280;58975;51.978;8.472;2023-07-29T13:59:39;99465.03;;;23.84;100.00
4858;BME280;58975;51.978;8.472;2023-07-29T14:04:35;99464.56;;;23.75;100.00
4858;BME280;58975;51.978;8.472;2023-07-29T14:09:32;99458.94;;;23.40;100.00
4858;BME280;58975;51.978;8.472;2023-07-29T14:14:28;99470.94;;;23.51;100.00
4858;BME280;58975;51.978;8.472;2023-07-29T14:19:25;99462.91;;;22.65;100.00
4858;BME280;58975;51.978;8.472;2023-07-29T14:24:21;99461.59;;;23.77;100.00
4858;BME280;58975;51.978;8.472;2023-07-29T14:29:18;99472.25;;;23.78;100.00
4858;BME280;58975;51.978;8.472;2023-07-29T14:34:15;99481.81;;;22.96;100.00
4858;BME280;58975;51.978;8.472;2023-07-29T14:39:11;99490.59;;;22.49;100.00
4858;BME280;58975;51.978;8.472;2023-07-29T14:44:08;99503.50;;;22.29;100.00
4858;BME280;58975;51.978;8.472;2023-07-29T14:49:04;99506.63;;;22.01;100.00
4858;BME280;58975;51.978;8.472;2023-07-29T14:54:01;99502.28;;;21.93;100.00
4858;BME280;58975;51.978;8.472;2023-07-29T14:58:57;99515.28;;;21.78;100.00
4858;BME280;58975;51.978;8.472;2023-07-29T15:03:54;99513.31;;;21.54;100.00
4858;BME280;58975;51.978;8.472;2023-07-29T15:08:50;99507.78;;;21.36;100.00
4858;BME280;58975;51.978;8.472;2023-07-29T15:13:47;99504.50;;;21.20;100.00
4858;BME280;58975;51.978;8.472;2023-07-29T15:18:43;99521.34;;;21.09;100.00
4858;BME280;58975;51.978;8.472;2023-07-29T15:23:40;99546.38;;;20.26;100.00
4858;BME280;58975;51.978;8.472;2023-07-29T15:28:36;99546.03;;;19.27;100.00
4858;BME280;58975;51.978;8.472;2023-07-29T15:33:33;99572.31;;;18.57;100.00
4858;BME280;58975;51.978;8.472;2023-07-29T15:38:30;99597.41;;;18.00;100.00
4858;BME280;58975;51.978;8.472;2023-07-29T15:43:27;99607.78;;;17.23;100.00
4858;BME280;58975;51.978;8.472;2023-07-29T15:48:23;99614.25;;;16.85;100.00
4858;BME280;58975;51.978;8.472;2023-07-29T15:53:20;99605.16;;;16.86;100.00
4858;BME280;58975;51.978;8.472;2023-07-29T15:58:16;99611.81;;;16.90;100.00
4858;BME280;58975;51.978;8.472;2023-07-29T16:03:13;99612.25;;;17.16;100.00
4858;BME280;58975;51.978;8.472;2023-07-29T16:08:09;99607.78;;;17.23;100.00
4858;BME280;58975;51.978;8.472;2023-07-29T16:13:06;99603.63;;;17.65;100.00
4858;BME280;58975;51.978;8.472;2023-07-29T16:18:02;99596.28;;;18.09;100.00
4858;BME280;58975;51.978;8.472;2023-07-29T16:22:59;99582.81;;;18.09;100.00
4858;BME280;58975;51.978;8.472;2023-07-29T16:27:55;99575.91;;;18.42;100.00
4858;BME280;58975;51.978;8.472;2023-07-29T16:32:53;99552.84;;;19.23;100.00
4858;BME280;58975;51.978;8.472;2023-07-29T16:37:49;99550.94;;;18.83;100.00
4858;BME280;58975;51.978;8.472;2023-07-29T16:42:46;99554.69;;;19.57;100.00
4858;BME280;58975;51.978;8.472;2023-07-29T16:47:42;99554.41;;;19.87;100.00
4858;BME280;58975;51.978;8.472;2023-07-29T16:52:39;99562.91;;;19.83;100.00
4858;BME280;58975;51.978;8.472;2023-07-29T16:57:35;99551.03;;;21.55;100.00
4858;BME280;58975;51.978;8.472;2023-07-29T17:02:32;99552.06;;;22.86;100.00
4858;BME280;58975;51.978;8.472;2023-07-29T17:07:28;99553.69;;;25.72;100.00
4858;BME280;58975;51.978;8.472;2023-07-29T17:12:25;99554.50;;;27.90;100.00
4858;BME280;58975;51.978;8.472;2023-07-29T17:17:21;99552.50;;;29.29;81.54
4858;BME280;58975;51.978;8.472;2023-07-29T17:22:18;99549.63;;;30.43;64.76
4858;BME280;58975;51.978;8.472;2023-07-29T17:27:14;99552.97;;;27.99;75.58
4858;BME280;58975;51.978;8.472;2023-07-29T17:32:11;99546.59;;;28.42;78.53
4858;BME280;58975;51.978;8.472;2023-07-29T17:37:08;99542.34;;;31.49;62.43
4858;BME280;58975;51.978;8.472;2023-07-29T17:42:05;99539.06;;;31.57;55.67
4858;BME280;58975;51.978;8.472;2023-07-29T17:47:02;99533.41;;;32.75;50.61
4858;BME280;58975;51.978;8.472;2023-07-29T17:51:59;99550.16;;;33.84;47.20
4858;BME280;58975;51.978;8.472;2023-07-29T17:56:55;99562.66;;;34.42;46.05
4858;BME280;58975;51.978;8.472;2023-07-29T18:01:52;99570.72;;;33.96;46.64
4858;BME280;58975;51.978;8.472;2023-07-29T18:06:48;99577.31;;;33.53;45.93
4858;BME280;58975;51.978;8.472;2023-07-29T18:11:45;99572.50;;;33.40;45.59
4858;BME280;58975;51.978;8.472;2023-07-29T18:16:41;99574.09;;;32.88;46.57
4858;BME280;58975;51.978;8.472;2023-07-29T18:21:38;99563.59;;;32.90;46.84
4858;BME280;58975;51.978;8.472;2023-07-29T18:26:34;99558.59;;;31.60;49.93
4858;BME280;58975;51.978;8.472;2023-07-29T18:31:31;99560.63;;;30.48;52.58
4858;BME280;58975;51.978;8.472;2023-07-29T18:36:29;99566.78;;;27.44;63.73
4858;BME280;58975;51.978;8.472;2023-07-29T18:41:26;99590.94;;;24.32;100.00
4858;BME280;58975;51.978;8.472;2023-07-29T18:46:24;99601.00;;;22.17;100.00
4858;BME280;58975;51.978;8.472;2023-07-29T18:51:25;99616.31;;;20.95;100.00
4858;BME280;58975;51.978;8.472;2023-07-29T18:56:22;99610.41;;;20.25;100.00
4858;BME280;58975;51.978;8.472;2023-07-29T19:01:18;99607.38;;;20.94;100.00
4858;BME280;58975;51.978;8.472;2023-07-29T19:06:16;99607.78;;;20.78;100.00
4858;BME280;58975;51.978;8.472;2023-07-29T19:11:13;99614.88;;;19.92;100.00
4858;BME280;58975;51.978;8.472;2023-07-29T19:16:11;99607.72;;;19.03;100.00
4858;BME280;58975;51.978;8.472;2023-07-29T19:21:08;99610.53;;;18.46;100.00
4858;BME280;58975;51.978;8.472;2023-07-29T19:26:05;99609.75;;;18.09;100.00
4858;BME280;58975;51.978;8.472;2023-07-29T19:31:01;99601.25;;;17.91;100.00
4858;BME280;58975;51.978;8.472;2023-07-29T19:35:58;99604.34;;;17.73;100.00
4858;BME280;58975;51.978;8.472;2023-07-29T19:40:59;99612.75;;;17.64;100.00
4858;BME280;58975;51.978;8.472;2023-07-29T19:45:59;99610.59;;;17.59;100.00
4858;BME280;58975;51.978;8.472;2023-07-29T19:50:59;99609.94;;;17.57;100.00
4858;BME280;58975;51.978;8.472;2023-07-29T19:55:55;99611.78;;;17.42;100.00
4858;BME280;58975;51.978;8.472;2023-07-29T20:00:52;99621.25;;;17.23;100.00
4858;BME280;58975;51.978;8.472;2023-07-29T20:05:49;99627.16;;;17.04;100.00
4858;BME280;58975;51.978;8.472;2023-07-29T20:10:45;99641.72;;;16.95;100.00
4858;BME280;58975;51.978;8.472;2023-07-29T20:15:42;99645.91;;;16.97;100.00
4858;BME280;58975;51.978;8.472;2023-07-29T20:20:39;99638.47;;;16.99;100.00
4858;BME280;58975;51.978;8.472;2023-07-29T20:25:36;99640.94;;;16.86;100.00
4858;BME280;58975;51.978;8.472;2023-07-29T20:30:32;99645.59;;;16.78;100.00
4858;BME280;58975;51.978;8.472;2023-07-29T20:35:29;99637.59;;;16.70;100.00
4858;BME280;58975;51.978;8.472;2023-07-29T20:40:26;99644.97;;;16.68;100.00
4858;BME280;58975;51.978;8.472;2023-07-29T20:45:22;99640.13;;;16.63;100.00
4858;BME280;58975;51.978;8.472;2023-07-29T20:50:19;99641.34;;;16.61;100.00
4858;BME280;58975;51.978;8.472;2023-07-29T20:55:15;99632.09;;;16.55;100.00
4858;BME280;58975;51.978;8.472;2023-07-29T21:00:12;99631.00;;;16.49;100.00
4858;BME280;58975;51.978;8.472;2023-07-29T21:05:08;99632.06;;;16.40;100.00
4858;BME280;58975;51.978;8.472;2023-07-29T21:10:05;99632.41;;;16.37;100.00
4858;BME280;58975;51.978;8.472;2023-07-29T21:15:02;99625.38;;;16.36;100.00
4858;BME280;58975;51.978;8.472;2023-07-29T21:19:59;99628.00;;;16.22;100.00
4858;BME280;58975;51.978;8.472;2023-07-29T21:24:57;99622.84;;;16.12;100.00
4858;BME280;58975;51.978;8.472;2023-07-29T21:29:54;99631.94;;;16.11;100.00
4858;BME280;58975;51.978;8.472;2023-07-29T21:34:50;99645.38;;;16.11;100.00
4858;BME280;58975;51.978;8.472;2023-07-29T21:39:49;99657.28;;;16.08;100.00
4858;BME280;58975;51.978;8.472;2023-07-29T21:44:46;99667.53;;;16.05;100.00
4858;BME280;58975;51.978;8.472;2023-07-29T21:49:42;99660.81;;;16.09;100.00
4858;BME280;58975;51.978;8.472;2023-07-29T21:54:39;99666.19;;;16.09;100.00
4858;BME280;58975;51.978;8.472;2023-07-29T21:59:35;99666.94;;;15.95;100.00
4858;BME280;58975;51.978;8.472;2023-07-29T22:04:32;99659.78;;;15.79;100.00
4858;BME280;58975;51.978;8.472;2023-07-29T22:09:29;99670.03;;;15.76;100.00
4858;BME280;58975;51.978;8.472;2023-07-29T22:14:25;99672.53;;;15.77;100.00
4858;BME280;58975;51.978;8.472;2023-07-29T22:19:22;99664.69;;;15.76;100.00
4858;BME280;58975;51.978;8.472;2023-07-29T22:24:18;99672.38;;;15.79;100.00
4858;BME280;58975;51.978;8.472;2023-07-29T22:29:15;99666.34;;;15.77;100.00
4858;BME280;58975;51.978;8.472;2023-07-29T22:34:12;99666.03;;;15.72;100.00
4858;BME280;58975;51.978;8.472;2023-07-29T22:39:09;99682.63;;;15.75;100.00
4858;BME280;58975;51.978;8.472;2023-07-29T22:44:05;99688.66;;;15.77;100.00
4858;BME280;58975;51.978;8.472;2023-07-29T22:49:02;99691.16;;;15.79;100.00
4858;BME280;58975;51.978;8.472;2023-07-29T22:53:58;99708.38;;;15.92;100.00
4858;BME280;58975;51.978;8.472;2023-07-29T22:58:55;99703.84;;;15.93;100.00
4858;BME280;58975;51.978;8.472;2023-07-29T23:03:51;99718.00;;;15.79;100.00
4858;BME280;58975;51.978;8.472;2023-07-29T23:08:48;99717.00;;;15.80;100.00
4858;BME280;58975;51.978;8.472;2023-07-29T23:13:45;99727.91;;;15.78;100.00
4858;BME280;58975;51.978;8.472;2023-07-29T23:18:41;99740.16;;;15.73;100.00
4858;BME280;58975;51.978;8.472;2023-07-29T23:23:37;99745.22;;;15.76;100.00
4858;BME280;58975;51.978;8.472;2023-07-29T23:28:34;99759.59;;;15.91;100.00
4858;BME280;58975;51.978;8.472;2023-07-29T23:33:31;99763.31;;;15.82;100.00
4858;BME280;58975;51.978;8.472;2023-07-29T23:38:28;99770.03;;;15.78;100.00
4858;BME280;58975;51.978;8.472;2023-07-29T23:43:24;99784.13;;;15.80;100.00
4858;BME280;58975;51.978;8.472;2023-07-29T23:48:21;99786.84;;;15.72;100.00
4858;BME280;58975;51.978;8.472;2023-07-29T23:53:17;99797.25;;;15.67;100.00
4858;BME280;58975;51.978;8.472;2023-07-29T23:58:14;99805.28;;;15.67;100.00
